createdAt,value
2023-05-14T00:00:44.297Z,20.17
2023-05-14T00:03:11.366Z,23.02
2023-05-14T00:05:38.509Z,21.20
2023-05-14T00:08:06.500Z,24.10
2023-05-14T00:10:33.361Z,20.60
2023-05-14T00:12:59.869Z,21.98
2023-05-14T00:15:26.396Z,24.80
2023-05-14T00:17:52.955Z,22.10
2023-05-14T00:20:20.198Z,20.83
2023-05-14T00:22:47.929Z,25.52
2023-05-14T00:25:16.196Z,21.17
2023-05-14T00:27:44.424Z,21.13
2023-05-14T00:30:13.116Z,22.95
2023-05-14T00:32:41.739Z,22.48
2023-05-14T00:35:10.521Z,22.77
2023-05-14T00:37:38.566Z,21.63
2023-05-14T00:40:08.183Z,20.55
2023-05-14T00:42:36.618Z,23.58
2023-05-14T00:45:05.257Z,21.27
2023-05-14T00:47:35.926Z,24.55
2023-05-14T00:50:04.542Z,19.83
2023-05-14T00:52:33.255Z,21.42
2023-05-14T00:55:04.564Z,18.77
2023-05-14T00:57:33.459Z,21.55
2023-05-14T01:00:01.514Z,20.10
2023-05-14T01:02:28.161Z,21.00
2023-05-14T01:04:55.443Z,21.10
2023-05-14T01:10:11.174Z,25.40
2023-05-14T01:18:00.268Z,15.80
2023-05-14T01:20:27.293Z,19.05
2023-05-14T01:22:53.949Z,21.73
2023-05-14T01:25:20.664Z,20.08
2023-05-14T01:30:31.942Z,21.13
2023-05-14T01:33:03.080Z,23.48
2023-05-14T01:35:30.763Z,21.25
2023-05-14T01:38:00.747Z,20.33
2023-05-14T01:40:27.716Z,20.92
2023-05-14T01:42:55.096Z,21.38
2023-05-14T01:45:22.609Z,23.95
2023-05-14T01:47:49.439Z,22.38
2023-05-14T01:50:16.202Z,21.77
2023-05-14T01:52:43.215Z,20.40
2023-05-14T01:55:10.355Z,21.45
2023-05-14T01:57:36.893Z,23.67
2023-05-14T02:00:04.433Z,24.02
2023-05-14T02:02:31.155Z,22.25
2023-05-14T02:04:57.691Z,25.92
2023-05-14T02:07:24.418Z,27.60
2023-05-14T02:09:50.971Z,26.27
2023-05-14T02:12:17.503Z,22.02
2023-05-14T02:14:44.050Z,26.25
2023-05-14T02:17:10.601Z,25.67
2023-05-14T02:19:37.203Z,23.42
2023-05-14T02:22:03.804Z,25.75
2023-05-14T02:24:30.375Z,24.25
2023-05-14T02:26:57.003Z,25.13
2023-05-14T02:29:23.618Z,29.13
2023-05-14T02:31:50.298Z,25.42
2023-05-14T02:34:17.020Z,26.70
2023-05-14T02:36:43.620Z,26.20
2023-05-14T02:39:10.220Z,25.70
2023-05-14T02:41:36.827Z,31.38
2023-05-14T02:44:03.398Z,26.48
2023-05-14T02:46:32.123Z,25.20
2023-05-14T02:48:58.961Z,28.48
2023-05-14T02:51:26.479Z,26.50
2023-05-14T02:53:53.103Z,26.45
2023-05-14T02:56:19.747Z,26.13
2023-05-14T02:58:46.286Z,29.20
2023-05-14T03:01:12.930Z,29.75
2023-05-14T03:03:39.943Z,26.95
2023-05-14T03:06:07.204Z,27.23
2023-05-14T03:08:33.738Z,27.25
2023-05-14T03:11:00.345Z,26.05
2023-05-14T03:13:26.911Z,28.25
2023-05-14T03:15:57.036Z,27.92
2023-05-14T03:18:23.708Z,25.85
2023-05-14T03:20:50.282Z,28.25
2023-05-14T03:23:16.875Z,28.58
2023-05-14T03:25:43.484Z,31.17
2023-05-14T03:28:10.082Z,32.03
2023-05-14T03:30:36.758Z,31.88
2023-05-14T03:33:03.682Z,47.38
2023-05-14T03:35:30.349Z,57.33
2023-05-14T03:37:59.218Z,35.80
2023-05-14T03:40:26.299Z,34.42
2023-05-14T03:42:53.013Z,23.65
2023-05-14T03:45:19.637Z,27.42
2023-05-14T03:47:46.204Z,51.72
2023-05-14T03:50:12.779Z,45.33
2023-05-14T03:52:39.357Z,54.95
2023-05-14T03:55:06.406Z,35.22
2023-05-14T03:57:33.013Z,39.28
2023-05-14T03:59:59.515Z,51.17
2023-05-14T04:02:26.207Z,40.28
2023-05-14T04:04:52.874Z,54.25
2023-05-14T04:07:19.542Z,42.03
2023-05-14T04:09:46.118Z,38.28
2023-05-14T04:12:12.653Z,39.33
2023-05-14T04:14:39.466Z,36.15
2023-05-14T04:17:05.998Z,48.83
2023-05-14T04:19:32.536Z,34.22
2023-05-14T04:21:59.369Z,37.53
2023-05-14T04:24:25.899Z,39.97
2023-05-14T04:26:52.432Z,30.23
2023-05-14T04:29:19.007Z,44.75
2023-05-14T04:31:46.433Z,50.95
2023-05-14T04:34:13.115Z,56.20
2023-05-14T04:36:40.244Z,59.05
2023-05-14T04:39:07.209Z,59.90
2023-05-14T04:41:33.831Z,48.45
2023-05-14T04:44:02.038Z,40.47
2023-05-14T04:46:28.920Z,47.30
2023-05-14T04:48:56.568Z,31.30
2023-05-14T04:51:23.858Z,51.58
2023-05-14T04:53:50.462Z,38.75
2023-05-14T04:56:17.038Z,46.22
2023-05-14T04:58:43.588Z,38.30
2023-05-14T05:01:10.204Z,53.35
2023-05-14T05:03:36.790Z,40.25
2023-05-14T05:06:03.575Z,36.67
2023-05-14T05:08:30.169Z,25.42
2023-05-14T05:10:56.767Z,34.25
2023-05-14T05:13:23.363Z,46.38
2023-05-14T05:15:49.973Z,37.40
2023-05-14T05:18:16.594Z,40.45
2023-05-14T05:20:43.142Z,38.10
2023-05-14T05:23:09.742Z,29.67
2023-05-14T05:25:36.387Z,27.90
2023-05-14T05:28:02.982Z,28.58
2023-05-14T05:30:30.292Z,31.08
2023-05-14T05:32:57.632Z,40.75
2023-05-14T05:35:24.676Z,31.05
2023-05-14T05:37:51.222Z,30.63
2023-05-14T05:40:17.954Z,34.63
2023-05-14T05:42:44.488Z,29.67
2023-05-14T05:45:11.196Z,38.67
2023-05-14T05:47:37.771Z,26.48
2023-05-14T05:50:04.752Z,33.05
2023-05-14T05:52:31.349Z,23.83
2023-05-14T05:54:57.935Z,30.85
2023-05-14T05:57:26.301Z,28.92
2023-05-14T05:59:53.279Z,30.55
2023-05-14T06:02:20.056Z,37.50
2023-05-14T06:04:46.864Z,24.23
2023-05-14T06:07:13.374Z,29.70
2023-05-14T06:09:39.924Z,29.75
2023-05-14T06:12:06.805Z,27.00
2023-05-14T06:14:33.611Z,44.95
2023-05-14T06:17:00.433Z,27.98
2023-05-14T06:19:27.013Z,26.63
2023-05-14T06:21:53.548Z,30.63
2023-05-14T06:24:20.417Z,33.53
2023-05-14T06:26:48.843Z,30.98
2023-05-14T06:29:15.458Z,31.95
2023-05-14T06:31:42.297Z,27.42
2023-05-14T06:34:09.228Z,29.50
2023-05-14T06:36:35.760Z,32.13
2023-05-14T06:39:02.391Z,33.03
2023-05-14T06:41:29.646Z,32.95
2023-05-14T06:43:56.155Z,32.10
2023-05-14T06:46:22.741Z,30.48
2023-05-14T06:48:49.377Z,37.03
2023-05-14T06:51:16.012Z,30.42
2023-05-14T06:53:42.573Z,28.20
2023-05-14T06:56:09.206Z,28.25
2023-05-14T06:58:35.826Z,29.90
2023-05-14T07:01:02.367Z,28.17
2023-05-14T07:03:29.259Z,20.63
2023-05-14T07:05:55.822Z,21.05
2023-05-14T07:08:22.388Z,22.48
2023-05-14T07:10:49.148Z,40.80
2023-05-14T07:13:15.721Z,21.67
2023-05-14T07:15:42.310Z,20.65
2023-05-14T07:18:08.901Z,17.75
2023-05-14T07:20:35.561Z,24.30
2023-05-14T07:23:02.144Z,28.45
2023-05-14T07:25:28.720Z,28.58
2023-05-14T07:27:55.874Z,26.20
2023-05-14T07:30:22.580Z,25.50
2023-05-14T07:32:49.457Z,24.65
2023-05-14T07:35:16.198Z,27.40
2023-05-14T07:37:43.048Z,24.55
2023-05-14T07:40:09.950Z,23.90
2023-05-14T07:42:37.499Z,20.55
2023-05-14T07:45:05.577Z,19.98
2023-05-14T07:47:32.398Z,23.33
2023-05-14T07:49:59.132Z,21.45
2023-05-14T07:52:25.738Z,19.42
2023-05-14T07:54:52.675Z,20.83
2023-05-14T07:57:20.281Z,32.38
2023-05-14T07:59:47.773Z,26.83
2023-05-14T08:02:16.079Z,17.83
2023-05-14T08:04:42.903Z,17.60
2023-05-14T08:07:09.697Z,23.63
2023-05-14T08:09:36.383Z,39.72
2023-05-14T08:12:03.102Z,20.23
2023-05-14T08:14:29.690Z,17.48
2023-05-14T08:16:56.306Z,21.55
2023-05-14T08:19:24.381Z,23.60
2023-05-14T08:21:51.509Z,25.23
2023-05-14T08:24:19.062Z,25.10
2023-05-14T08:26:45.708Z,19.45
2023-05-14T08:29:13.992Z,20.88
2023-05-14T08:31:42.300Z,25.85
2023-05-14T08:34:08.860Z,25.42
2023-05-14T08:36:35.580Z,29.75
2023-05-14T08:39:02.377Z,38.05
2023-05-14T08:41:29.133Z,26.75
2023-05-14T08:46:33.173Z,24.13
2023-05-14T08:49:08.945Z,21.55
2023-05-14T08:51:36.256Z,21.85
2023-05-14T08:54:03.609Z,23.85
2023-05-14T08:56:33.452Z,22.02
2023-05-14T08:59:00.559Z,21.63
2023-05-14T09:01:27.145Z,21.02
2023-05-14T09:03:54.935Z,19.73
2023-05-14T09:06:22.674Z,19.65
2023-05-14T09:08:49.653Z,24.73
2023-05-14T09:11:16.255Z,23.77
2023-05-14T09:13:43.102Z,23.52
2023-05-14T09:16:09.739Z,22.02
2023-05-14T09:18:36.935Z,21.88
2023-05-14T09:21:04.703Z,24.58
2023-05-14T09:23:34.379Z,23.67
2023-05-14T09:26:04.860Z,23.40
2023-05-14T09:28:31.421Z,21.75
2023-05-14T09:30:57.978Z,25.90
2023-05-14T09:33:28.374Z,21.23
2023-05-14T09:35:59.956Z,22.05
2023-05-14T09:38:31.036Z,23.70
2023-05-14T09:40:58.638Z,22.08
2023-05-14T09:43:26.085Z,27.00
2023-05-14T09:45:53.152Z,23.33
2023-05-14T09:48:19.984Z,24.17
2023-05-14T09:50:47.110Z,31.00
2023-05-14T09:53:14.135Z,28.08
2023-05-14T09:55:41.973Z,34.97
2023-05-14T09:58:08.586Z,23.75
2023-05-14T10:00:36.117Z,21.33
2023-05-14T10:03:07.102Z,21.95
2023-05-14T10:05:40.046Z,25.25
2023-05-14T10:08:13.374Z,21.98
2023-05-14T10:10:40.277Z,20.73
2023-05-14T10:13:13.609Z,21.45
2023-05-14T10:15:47.871Z,22.35
2023-05-14T10:18:19.701Z,22.02
2023-05-14T10:20:53.048Z,20.30
2023-05-14T10:23:20.132Z,20.17
2023-05-14T10:25:46.808Z,22.92
2023-05-14T10:28:13.691Z,21.35
2023-05-14T10:30:45.884Z,22.65
2023-05-14T10:33:15.498Z,22.67
2023-05-14T10:38:32.289Z,20.98
2023-05-14T10:41:02.040Z,19.92
2023-05-14T10:43:30.915Z,17.40
2023-05-14T10:45:58.838Z,21.20
2023-05-14T10:48:26.106Z,21.38
2023-05-14T10:50:53.654Z,22.08
2023-05-14T10:53:30.549Z,20.92
2023-05-14T10:55:57.127Z,18.13
2023-05-14T10:58:23.649Z,16.58
2023-05-14T11:00:54.709Z,17.85
2023-05-14T11:03:21.572Z,17.23
2023-05-14T11:05:48.887Z,18.42
2023-05-14T11:08:15.816Z,17.80
2023-05-14T11:10:43.202Z,16.30
2023-05-14T11:13:10.411Z,17.77
2023-05-14T11:15:38.748Z,18.02
2023-05-14T11:18:05.350Z,14.57
2023-05-14T11:20:32.820Z,15.85
2023-05-14T11:23:00.396Z,16.10
2023-05-14T11:25:26.993Z,17.48
2023-05-14T11:27:58.231Z,16.13
2023-05-14T11:30:25.153Z,16.40
2023-05-14T11:32:52.262Z,16.40
2023-05-14T11:35:18.947Z,14.35
2023-05-14T11:37:52.306Z,13.30
2023-05-14T11:40:19.149Z,16.65
2023-05-14T11:42:46.064Z,16.73
2023-05-14T11:45:13.809Z,14.45
2023-05-14T11:47:42.759Z,13.00
2023-05-14T11:50:10.037Z,13.43
2023-05-14T11:52:41.895Z,12.65
2023-05-14T11:55:12.832Z,13.50
2023-05-14T11:57:40.949Z,22.38
2023-05-14T12:00:09.562Z,13.00
2023-05-14T12:02:36.624Z,16.75
2023-05-14T12:05:03.365Z,15.25
2023-05-14T12:07:30.809Z,11.82
2023-05-14T12:10:01.636Z,11.15
2023-05-14T12:12:28.253Z,13.13
2023-05-14T12:14:54.882Z,18.35
2023-05-14T12:17:22.861Z,17.25
2023-05-14T12:19:51.974Z,14.75
2023-05-14T12:22:21.184Z,12.70
2023-05-14T12:24:57.014Z,8.50
2023-05-14T12:27:25.005Z,11.18
2023-05-14T12:30:19.265Z,12.55
2023-05-14T12:32:51.457Z,9.80
2023-05-14T12:35:18.535Z,11.10
2023-05-14T12:37:45.064Z,9.90
2023-05-14T12:40:17.727Z,9.82
2023-05-14T12:42:44.236Z,10.25
2023-05-14T12:45:11.314Z,17.63
2023-05-14T12:47:37.987Z,25.35
2023-05-14T12:50:05.921Z,9.23
2023-05-14T12:52:38.839Z,9.85
2023-05-14T12:55:07.505Z,6.75
2023-05-14T12:57:35.563Z,5.82
2023-05-14T13:00:06.588Z,9.93
2023-05-14T13:02:33.710Z,5.88
2023-05-14T13:05:10.940Z,5.97
2023-05-14T13:07:38.362Z,6.60
2023-05-14T13:10:06.059Z,8.45
2023-05-14T13:12:34.110Z,7.07
2023-05-14T13:15:00.748Z,7.63
2023-05-14T13:17:27.470Z,7.78
2023-05-14T13:19:54.126Z,8.32
2023-05-14T13:22:23.606Z,8.02
2023-05-14T13:24:50.800Z,6.70
2023-05-14T13:27:18.453Z,6.20
2023-05-14T13:29:45.226Z,10.10
2023-05-14T13:32:11.834Z,6.63
2023-05-14T13:34:38.941Z,7.38
2023-05-14T13:37:05.623Z,6.90
2023-05-14T13:39:32.168Z,7.22
2023-05-14T13:41:58.837Z,6.53
2023-05-14T13:44:25.836Z,7.30
2023-05-14T13:46:53.213Z,6.78
2023-05-14T13:49:19.867Z,5.40
2023-05-14T13:51:48.364Z,5.85
2023-05-14T13:54:15.092Z,7.55
2023-05-14T13:56:42.070Z,7.80
2023-05-14T13:59:08.692Z,7.20
2023-05-14T14:01:35.755Z,5.57
2023-05-14T14:04:02.425Z,5.45
2023-05-14T14:06:32.331Z,5.22
2023-05-14T14:08:58.889Z,4.60
2023-05-14T14:11:25.715Z,6.43
2023-05-14T14:13:52.355Z,5.13
2023-05-14T14:16:19.183Z,5.40
2023-05-14T14:18:46.109Z,5.05
2023-05-14T14:21:13.493Z,6.28
2023-05-14T14:23:40.714Z,3.63
2023-05-14T14:26:07.365Z,5.25
2023-05-14T14:28:35.562Z,4.90
2023-05-14T14:31:02.996Z,3.67
2023-05-14T14:33:29.556Z,3.85
2023-05-14T14:35:56.422Z,3.63
2023-05-14T14:38:23.089Z,3.75
2023-05-14T14:40:49.717Z,5.30
2023-05-14T14:43:16.671Z,4.60
2023-05-14T14:45:46.826Z,5.47
2023-05-14T14:48:32.731Z,12.20
2023-05-14T14:50:59.870Z,5.80
2023-05-14T14:53:27.296Z,3.00
2023-05-14T14:55:53.930Z,3.97
2023-05-14T14:58:21.170Z,6.07
2023-05-14T15:00:49.423Z,4.28
2023-05-14T15:03:17.886Z,5.78
2023-05-14T15:05:44.571Z,4.10
2023-05-14T15:08:11.195Z,3.75
2023-05-14T15:10:38.366Z,3.83
2023-05-14T15:13:06.483Z,3.53
2023-05-14T15:15:34.689Z,3.35
2023-05-14T15:18:03.142Z,4.90
2023-05-14T15:20:30.681Z,6.70
2023-05-14T15:22:57.400Z,4.72
2023-05-14T15:25:24.721Z,5.18
2023-05-14T15:27:51.880Z,5.72
2023-05-14T15:30:19.299Z,4.90
2023-05-14T15:32:48.667Z,3.53
2023-05-14T15:35:15.350Z,9.88
2023-05-14T15:37:43.633Z,3.53
2023-05-14T15:40:12.193Z,4.78
2023-05-14T15:42:42.568Z,7.13
2023-05-14T15:45:12.778Z,3.70
2023-05-14T15:47:40.731Z,4.85
2023-05-14T15:50:08.493Z,4.15
2023-05-14T15:52:36.417Z,4.05
2023-05-14T15:55:05.357Z,4.93
2023-05-14T15:57:32.124Z,3.35
2023-05-14T15:59:59.049Z,3.38
2023-05-14T16:02:26.087Z,3.97
2023-05-14T16:04:52.717Z,3.95
2023-05-14T16:07:19.535Z,3.40
2023-05-14T16:09:46.084Z,3.05
2023-05-14T16:12:13.150Z,2.78
2023-05-14T16:14:41.932Z,2.65
2023-05-14T16:17:09.738Z,3.38
2023-05-14T16:19:37.705Z,3.35
2023-05-14T16:22:04.284Z,4.32
2023-05-14T16:24:31.798Z,3.20
2023-05-14T16:26:58.859Z,4.18
2023-05-14T16:29:25.930Z,3.65
2023-05-14T16:31:52.897Z,5.00
2023-05-14T16:34:20.293Z,4.40
2023-05-14T16:36:47.578Z,3.20
2023-05-14T16:39:14.581Z,3.33
2023-05-14T16:41:41.523Z,4.30
2023-05-14T16:44:08.074Z,4.57
2023-05-14T16:46:34.811Z,3.72
2023-05-14T16:49:02.578Z,3.55
2023-05-14T16:51:29.194Z,4.75
2023-05-14T16:53:55.902Z,3.97
2023-05-14T16:56:22.660Z,5.47
2023-05-14T16:58:49.409Z,2.38
2023-05-14T17:01:16.187Z,2.17
2023-05-14T17:03:43.583Z,1.85
2023-05-14T17:06:10.291Z,4.30
2023-05-14T17:08:36.907Z,4.28
2023-05-14T17:11:05.909Z,1.83
2023-05-14T17:13:33.469Z,2.40
2023-05-14T17:16:00.830Z,3.58
2023-05-14T17:18:27.800Z,2.55
2023-05-14T17:20:54.367Z,3.22
2023-05-14T17:23:20.965Z,3.72
2023-05-14T17:25:47.509Z,3.53
2023-05-14T17:28:14.122Z,8.18
2023-05-14T17:30:40.984Z,1.90
2023-05-14T17:33:07.609Z,2.38
2023-05-14T17:35:36.308Z,3.15
2023-05-14T17:38:03.647Z,2.15
2023-05-14T17:40:30.358Z,2.92
2023-05-14T17:42:57.179Z,1.70
2023-05-14T17:45:24.285Z,1.73
2023-05-14T17:47:51.538Z,2.88
2023-05-14T17:50:18.884Z,4.53
2023-05-14T17:52:46.181Z,2.28
2023-05-14T17:55:12.820Z,2.17
2023-05-14T17:57:39.499Z,3.33
2023-05-14T18:00:06.797Z,3.22
2023-05-14T18:02:33.492Z,2.47
2023-05-14T18:05:00.420Z,1.73
2023-05-14T18:07:27.481Z,1.55
2023-05-14T18:09:54.096Z,3.97
2023-05-14T18:12:20.765Z,3.25
2023-05-14T18:14:47.300Z,4.22
2023-05-14T18:17:13.957Z,3.85
2023-05-14T18:19:41.088Z,2.42
2023-05-14T18:22:07.631Z,12.63
2023-05-14T18:24:34.255Z,11.13
2023-05-14T18:27:01.010Z,1.73
2023-05-14T18:29:27.544Z,2.20
2023-05-14T18:31:54.132Z,2.78
2023-05-14T18:34:20.807Z,5.32
2023-05-14T18:36:47.429Z,3.88
2023-05-14T18:39:13.922Z,3.08
2023-05-14T18:41:40.464Z,3.17
2023-05-14T18:44:06.967Z,3.50
2023-05-14T18:46:33.649Z,1.75
2023-05-14T18:49:00.263Z,2.28
2023-05-14T18:51:26.791Z,1.70
2023-05-14T18:53:53.338Z,3.05
2023-05-14T18:56:19.912Z,4.28
2023-05-14T18:58:46.433Z,2.10
2023-05-14T19:01:13.000Z,2.75
2023-05-14T19:03:42.076Z,1.92
2023-05-14T19:06:08.818Z,4.32
2023-05-14T19:08:35.830Z,1.70
2023-05-14T19:11:02.929Z,3.35
2023-05-14T19:13:30.265Z,6.00
2023-05-14T19:15:56.915Z,8.32
2023-05-14T19:18:23.435Z,2.45
2023-05-14T19:20:50.204Z,2.97
2023-05-14T19:23:16.962Z,2.83
2023-05-14T19:25:43.605Z,2.92
2023-05-14T19:28:10.304Z,4.97
2023-05-14T19:30:37.197Z,2.70
2023-05-14T19:33:04.344Z,1.38
2023-05-14T19:35:31.623Z,2.03
2023-05-14T19:37:58.193Z,1.55
2023-05-14T19:40:24.764Z,1.83
2023-05-14T19:42:51.304Z,2.45
2023-05-14T19:45:17.816Z,1.27
2023-05-14T19:47:44.497Z,1.52
2023-05-14T19:50:11.369Z,2.78
2023-05-14T19:52:37.905Z,1.83
2023-05-14T19:55:04.986Z,1.20
2023-05-14T19:57:31.610Z,1.73
2023-05-14T19:59:58.252Z,3.20
2023-05-14T20:02:24.858Z,3.55
2023-05-14T20:04:51.656Z,3.60
2023-05-14T20:07:18.280Z,2.42
2023-05-14T20:09:44.985Z,2.25
2023-05-14T20:12:12.927Z,4.63
2023-05-14T20:14:41.076Z,3.47
2023-05-14T20:17:07.690Z,1.70
2023-05-14T20:19:34.877Z,2.15
2023-05-14T20:22:01.446Z,3.83
2023-05-14T20:24:28.631Z,3.50
2023-05-14T20:26:55.307Z,2.83
2023-05-14T20:29:21.867Z,4.75
2023-05-14T20:31:48.370Z,3.50
2023-05-14T20:34:14.952Z,1.98
2023-05-14T20:36:41.902Z,3.97
2023-05-14T20:39:08.839Z,2.55
2023-05-14T20:41:35.481Z,2.30
2023-05-14T20:44:02.009Z,1.70
2023-05-14T20:46:28.669Z,2.58
2023-05-14T20:48:56.943Z,3.00
2023-05-14T20:51:23.544Z,2.22
2023-05-14T20:53:50.135Z,4.60
2023-05-14T20:56:16.744Z,4.63
2023-05-14T20:58:43.311Z,3.60
2023-05-14T21:01:09.926Z,3.80
2023-05-14T21:03:36.641Z,3.75
2023-05-14T21:06:03.391Z,2.78
2023-05-14T21:08:32.578Z,4.82
2023-05-14T21:10:59.161Z,4.32
2023-05-14T21:13:25.748Z,5.00
2023-05-14T21:15:52.363Z,5.78
2023-05-14T21:18:18.889Z,5.10
2023-05-14T21:20:45.417Z,2.85
2023-05-14T21:23:12.765Z,3.40
2023-05-14T21:25:39.404Z,3.40
2023-05-14T21:28:06.169Z,4.90
2023-05-14T21:30:32.773Z,2.15
2023-05-14T21:32:59.414Z,4.03
2023-05-14T21:35:26.300Z,3.08
2023-05-14T21:37:53.240Z,3.17
2023-05-14T21:40:19.804Z,2.35
2023-05-14T21:42:46.338Z,3.20
2023-05-14T21:45:12.944Z,2.92
2023-05-14T21:47:39.577Z,1.92
2023-05-14T21:50:06.965Z,3.10
2023-05-14T21:52:33.584Z,3.42
2023-05-14T21:55:00.114Z,6.00
2023-05-14T21:57:28.234Z,3.03
2023-05-14T21:59:55.585Z,3.58
2023-05-14T22:02:22.217Z,3.83
2023-05-14T22:04:48.759Z,2.67
2023-05-14T22:07:15.321Z,3.40
2023-05-14T22:09:41.878Z,5.75
2023-05-14T22:12:08.639Z,3.53
2023-05-14T22:14:35.183Z,2.65
2023-05-14T22:17:01.768Z,3.95
2023-05-14T22:19:28.555Z,2.80
2023-05-14T22:21:55.102Z,3.03
2023-05-14T22:24:21.701Z,3.17
2023-05-14T22:26:48.222Z,3.60
2023-05-14T22:29:14.778Z,3.78
2023-05-14T22:31:41.405Z,3.58
2023-05-14T22:34:07.990Z,3.38
2023-05-14T22:36:34.670Z,3.30
2023-05-14T22:39:01.214Z,4.78
2023-05-14T22:41:27.938Z,4.13
2023-05-14T22:43:54.474Z,6.70
2023-05-14T22:46:21.390Z,6.90
2023-05-14T22:48:49.264Z,7.07
2023-05-14T22:51:16.455Z,7.97
2023-05-14T22:53:43.276Z,9.23
2023-05-14T22:56:09.856Z,7.85
2023-05-14T22:58:36.449Z,10.77
2023-05-14T23:01:03.406Z,7.13
2023-05-14T23:03:29.986Z,11.93
2023-05-14T23:05:56.599Z,9.18
2023-05-14T23:08:23.174Z,8.30
2023-05-14T23:10:49.751Z,10.20
2023-05-14T23:13:16.480Z,9.55
2023-05-14T23:15:43.950Z,10.32
2023-05-14T23:18:10.618Z,10.98
2023-05-14T23:20:37.238Z,10.15
2023-05-14T23:23:03.816Z,9.25
2023-05-14T23:25:32.157Z,11.02
2023-05-14T23:27:58.725Z,10.90
2023-05-14T23:30:25.443Z,10.23
2023-05-14T23:32:52.028Z,11.20
2023-05-14T23:35:18.756Z,11.85
2023-05-14T23:37:47.416Z,13.18
2023-05-14T23:40:14.317Z,13.07
2023-05-14T23:42:41.141Z,12.18
2023-05-14T23:45:08.400Z,10.90
2023-05-14T23:47:35.276Z,12.00
2023-05-14T23:50:02.194Z,13.27
2023-05-14T23:52:28.836Z,11.95
2023-05-14T23:54:55.373Z,11.05
2023-05-14T23:57:22.058Z,8.10
2023-05-14T23:59:48.570Z,10.45
